Time;durP1;ratioP1;P1;durP2;ratioP2;P2;SDS_P1;SDS_P2;PMS_P1;PMS_P2;Temp;Humidity;BMP_temperature;BMP_pressure;BME280_temperature;BME280_humidity;BME280_pressure;Samples;Min_cycle;Max_cycle;Signal;HPM_P1;HPM_P2
2022/05/17 00:01:24;;;;;;;45.67;34.80;;;16.30;90.80;;;;;;5016541;28;20099;-46
2022/05/17 00:03:50;;;;;;;44.13;34.00;;;16.30;90.90;;;;;;5009811;28;20034;-45
2022/05/17 00:06:16;;;;;;;44.10;33.35;;;16.20;90.70;;;;;;5009995;28;20032;-45
2022/05/17 00:08:43;;;;;;;45.25;35.22;;;16.30;90.80;;;;;;5010498;28;20112;-44
2022/05/17 00:11:10;;;;;;;47.35;33.95;;;16.30;90.80;;;;;;5029098;28;20137;-44
2022/05/17 00:13:37;;;;;;;37.92;31.77;;;16.30;90.70;;;;;;5019922;28;20242;-45
2022/05/17 00:16:05;;;;;;;41.70;34.08;;;16.20;90.70;;;;;;5022476;28;20037;-44
2022/05/17 00:18:33;;;;;;;43.15;34.85;;;16.20;90.70;;;;;;5018808;28;20486;-46
2022/05/17 00:21:00;;;;;;;47.05;35.65;;;16.20;90.70;;;;;;5010107;28;20034;-45
2022/05/17 00:23:27;;;;;;;45.38;33.22;;;16.20;90.80;;;;;;5007849;28;20034;-46
2022/05/17 00:25:55;;;;;;;39.45;32.30;;;16.20;90.80;;;;;;5008963;28;20041;-44
2022/05/17 00:28:23;;;;;;;52.58;33.40;;;16.20;90.70;;;;;;5015870;28;20032;-44
2022/05/17 00:30:51;;;;;;;45.20;33.72;;;16.20;90.70;;;;;;5028669;28;20366;-45
2022/05/17 00:33:18;;;;;;;41.80;33.58;;;16.20;90.60;;;;;;4996084;28;20041;-44
2022/05/17 00:35:51;;;;;;;41.95;32.28;;;16.20;90.70;;;;;;5008543;28;20106;-44
2022/05/17 00:38:21;;;;;;;44.22;31.30;;;16.20;90.70;;;;;;5009236;28;20045;-45
2022/05/17 00:40:48;;;;;;;44.28;33.53;;;16.20;90.70;;;;;;5025221;28;20114;-44
2022/05/17 00:44:42;;;;;;;47.30;33.03;;;16.20;90.70;;;;;;5025383;28;20041;-45
2022/05/17 00:46:22;;;;;;;41.60;30.92;;;16.10;90.80;;;;;;5008706;28;20411;-44
2022/05/17 00:48:50;;;;;;;39.47;31.00;;;16.10;90.70;;;;;;5018645;28;20442;-44
2022/05/17 00:51:19;;;;;;;49.38;33.58;;;16.10;90.70;;;;;;5019715;28;20021;-45
2022/05/17 00:53:51;;;;;;;37.97;30.30;;;16.10;90.70;;;;;;5026270;28;20033;-44
2022/05/17 00:56:21;;;;;;;40.78;29.63;;;16.10;90.70;;;;;;5011432;28;20416;-46
2022/05/17 00:58:55;;;;;;;46.50;32.25;;;16.10;90.70;;;;;;5043622;28;20025;-43
2022/05/17 01:01:31;;;;;;;43.80;32.63;;;16.10;90.60;;;;;;5028058;28;20033;-44
2022/05/17 01:04:19;;;;;;;39.25;27.75;;;16.10;90.60;;;;;;5028333;28;20103;-44
2022/05/17 01:06:55;;;;;;;35.90;29.25;;;16.10;90.70;;;;;;5027406;28;20454;-44
2022/05/17 01:09:25;;;;;;;38.47;28.05;;;16.10;90.70;;;;;;5028278;28;20029;-46
2022/05/17 01:11:55;;;;;;;;;;;16.10;90.70;;;;;;5044639;28;20068;-43
2022/05/17 01:17:09;;;;;;;40.88;30.83;;;16.00;90.60;;;;;;5028373;28;20041;-45
2022/05/17 01:19:39;;;;;;;36.58;28.33;;;16.00;90.60;;;;;;5027821;28;20103;-43
2022/05/17 01:22:05;;;;;;;36.88;28.45;;;16.00;90.70;;;;;;5027182;28;20041;-44
2022/05/17 01:24:32;;;;;;;36.30;29.50;;;16.00;90.70;;;;;;5028135;28;20036;-46
2022/05/17 01:27:20;;;;;;;43.95;30.92;;;16.00;90.60;;;;;;4995828;28;20026;-44
2022/05/17 01:29:48;;;;;;;44.55;31.42;;;16.00;90.70;;;;;;5016906;28;20518;-43
2022/05/17 01:32:15;;;;;;;40.95;31.90;;;16.00;90.60;;;;;;5028428;28;20128;-44
2022/05/17 01:34:46;;;;;;;42.25;33.28;;;16.00;90.60;;;;;;5027779;28;20038;-44
2022/05/17 01:37:14;;;;;;;45.03;35.08;;;15.90;90.60;;;;;;5027984;28;20064;-43
2022/05/17 01:39:44;;;;;;;42.88;33.25;;;16.00;90.60;;;;;;5028044;28;20044;-44
2022/05/17 01:42:13;;;;;;;47.88;37.65;;;16.00;90.70;;;;;;5027864;28;20472;-45
2022/05/17 01:44:43;;;;;;;48.40;37.22;;;16.00;90.70;;;;;;5027823;28;20096;-44
2022/05/17 01:47:15;;;;;;;46.15;40.85;;;16.00;90.80;;;;;;5028229;28;20344;-43
2022/05/17 01:49:42;;;;;;;41.40;37.03;;;16.00;90.80;;;;;;5027896;28;20021;-44
2022/05/17 01:52:10;;;;;;;48.33;39.30;;;16.00;90.80;;;;;;5027933;28;20018;-43
2022/05/17 01:54:36;;;;;;;43.70;36.00;;;16.00;90.80;;;;;;5022151;28;20118;-43
2022/05/17 01:57:02;;;;;;;50.03;37.33;;;16.00;90.80;;;;;;5007291;28;20041;-43
2022/05/17 01:59:29;;;;;;;45.53;34.38;;;16.00;90.70;;;;;;5008191;28;20042;-43
2022/05/17 02:01:56;;;;;;;44.47;32.47;;;15.90;90.80;;;;;;5009004;28;20030;-44
2022/05/17 02:04:23;;;;;;;41.25;32.55;;;16.00;90.90;;;;;;5012180;28;20037;-44
2022/05/17 02:06:48;;;;;;;37.30;33.08;;;15.90;90.80;;;;;;5018276;28;20103;-44
2022/05/17 02:09:15;;;;;;;35.38;31.25;;;15.90;90.80;;;;;;5031594;28;20592;-43
2022/05/17 02:11:42;;;;;;;35.70;27.98;;;15.90;90.90;;;;;;5030994;28;20498;-44
2022/05/17 02:14:11;;;;;;;32.80;26.73;;;16.00;90.90;;;;;;5030808;28;20091;-43
2022/05/17 02:16:39;;;;;;;40.03;33.10;;;16.00;90.90;;;;;;5030486;28;20040;-47
2022/05/17 02:19:09;;;;;;;31.75;28.23;;;15.90;90.80;;;;;;5031541;28;20439;-46
2022/05/17 02:21:39;;;;;;;39.40;30.00;;;15.90;90.80;;;;;;5031292;28;20078;-44
2022/05/17 02:24:07;;;;;;;40.53;30.13;;;15.90;90.80;;;;;;5031134;28;20112;-43
2022/05/17 02:26:33;;;;;;;37.97;30.17;;;15.90;90.80;;;;;;5019077;28;20359;-44
2022/05/17 02:28:59;;;;;;;37.85;32.63;;;15.90;90.90;;;;;;5011568;28;20036;-44
2022/05/17 02:31:29;;;;;;;35.80;30.67;;;15.90;90.80;;;;;;5028036;28;20052;-44
2022/05/17 02:33:55;;;;;;;34.10;28.23;;;15.90;90.80;;;;;;5026533;28;20037;-42
2022/05/17 02:36:21;;;;;;;39.70;31.98;;;15.90;90.90;;;;;;5025897;28;20037;-43
2022/05/17 02:38:48;;;;;;;39.72;31.60;;;15.90;90.80;;;;;;5010232;28;20069;-43
2022/05/17 02:41:19;;;;;;;38.15;30.45;;;15.90;90.90;;;;;;4996104;28;20037;-43
2022/05/17 02:43:46;;;;;;;39.25;30.83;;;15.90;90.90;;;;;;5011425;28;20026;-44
2022/05/17 02:46:14;;;;;;;37.20;30.33;;;15.90;91.00;;;;;;5011328;28;20063;-43
2022/05/17 02:48:43;;;;;;;34.95;29.02;;;15.90;91.00;;;;;;5012134;28;20387;-43
2022/05/17 02:51:27;;;;;;;35.00;29.30;;;15.80;91.00;;;;;;5030929;28;20362;-44
2022/05/17 02:53:55;;;;;;;39.63;30.02;;;15.90;91.00;;;;;;5019033;28;20030;-43
2022/05/17 02:56:21;;;;;;;35.03;27.95;;;15.90;91.10;;;;;;4995788;28;20045;-42
2022/05/17 02:58:50;;;;;;;45.45;30.15;;;15.90;91.00;;;;;;5029752;28;20048;-44
2022/05/17 03:01:18;;;;;;;35.17;27.75;;;15.90;91.00;;;;;;5030588;28;20068;-42
2022/05/17 03:03:44;;;;;;;32.17;26.23;;;15.90;91.10;;;;;;5030551;28;20103;-42
2022/05/17 03:06:11;;;;;;;42.97;31.80;;;15.80;91.00;;;;;;5030272;28;20347;-43
2022/05/17 03:08:41;;;;;;;39.67;29.85;;;15.80;90.90;;;;;;5030242;28;20060;-43
2022/05/17 03:11:11;;;;;;;34.60;27.35;;;15.80;90.90;;;;;;5025661;28;20069;-43
2022/05/17 03:13:38;;;;;;;35.20;29.13;;;15.80;91.00;;;;;;5027004;28;20099;-42
2022/05/17 03:16:05;;;;;;;37.80;30.48;;;15.80;90.90;;;;;;5030014;28;20052;-45
2022/05/17 03:18:31;;;;;;;38.72;28.90;;;15.80;90.90;;;;;;5029066;28;20025;-42
2022/05/17 03:20:58;;;;;;;34.80;27.80;;;15.80;90.90;;;;;;5029870;28;20046;-45
2022/05/17 03:23:29;;;;;;;35.53;25.95;;;15.80;90.80;;;;;;5029935;28;20026;-43
2022/05/17 03:25:56;;;;;;;39.13;28.70;;;15.70;90.70;;;;;;5030094;28;20021;-44
2022/05/17 03:28:22;;;;;;;41.63;29.65;;;15.70;90.70;;;;;;5029949;28;20033;-42
2022/05/17 03:30:49;;;;;;;34.05;27.15;;;15.60;90.70;;;;;;5030188;28;20395;-44
2022/05/17 03:33:16;;;;;;;37.35;26.45;;;15.60;90.70;;;;;;5029713;28;20033;-44
2022/05/17 03:35:43;;;;;;;30.85;24.65;;;15.60;90.70;;;;;;5029477;28;20036;-42
2022/05/17 03:38:09;;;;;;;32.17;25.13;;;15.50;90.70;;;;;;5029165;28;20026;-43
2022/05/17 03:40:36;;;;;;;40.22;28.15;;;15.50;90.60;;;;;;5028906;28;20048;-42
2022/05/17 03:43:03;;;;;;;31.65;24.88;;;15.50;90.60;;;;;;5029420;28;20502;-43
2022/05/17 03:45:32;;;;;;;31.75;25.15;;;15.50;90.70;;;;;;5029382;28;20065;-43
2022/05/17 03:47:59;;;;;;;40.30;25.33;;;15.40;90.60;;;;;;5045455;28;21433;-43
2022/05/17 03:50:25;;;;;;;34.55;25.88;;;15.40;90.50;;;;;;5029872;28;20275;-43
2022/05/17 03:52:52;;;;;;;31.83;23.25;;;15.40;90.50;;;;;;5028488;28;20116;-43
2022/05/17 03:55:18;;;;;;;32.67;23.77;;;15.40;90.50;;;;;;5029177;28;20411;-42
2022/05/17 03:57:45;;;;;;;30.85;23.45;;;15.40;90.50;;;;;;5029780;28;20053;-42
2022/05/17 04:00:12;;;;;;;27.25;22.08;;;15.30;90.50;;;;;;5028798;28;20026;-43
2022/05/17 04:02:39;;;;;;;30.02;21.65;;;15.40;90.50;;;;;;5029160;28;20043;-42
2022/05/17 04:05:07;;;;;;;27.63;22.45;;;15.40;90.50;;;;;;5029193;28;20081;-43
2022/05/17 04:07:35;;;;;;;34.53;21.33;;;15.30;90.40;;;;;;5029341;28;20017;-42
2022/05/17 04:10:06;;;;;;;28.70;21.40;;;15.30;90.40;;;;;;5029198;28;20082;-43
2022/05/17 04:12:33;;;;;;;34.30;21.20;;;15.30;90.40;;;;;;5029453;28;20025;-43
2022/05/17 04:14:59;;;;;;;32.25;22.55;;;15.30;90.50;;;;;;5043624;28;20063;-42
2022/05/17 04:17:26;;;;;;;27.60;19.90;;;15.30;90.40;;;;;;5028897;28;20025;-44
2022/05/17 04:19:53;;;;;;;24.23;19.55;;;15.20;90.40;;;;;;5044743;28;20025;-42
2022/05/17 04:22:19;;;;;;;30.55;21.20;;;15.20;90.30;;;;;;5028045;28;20183;-42
2022/05/17 04:24:46;;;;;;;30.38;22.15;;;15.10;90.20;;;;;;5028637;28;20033;-44
2022/05/17 04:27:15;;;;;;;26.02;21.05;;;15.10;90.20;;;;;;5044407;28;20021;-43
2022/05/17 04:29:42;;;;;;;30.10;20.80;;;15.10;90.20;;;;;;5028622;28;20029;-42
2022/05/17 04:32:13;;;;;;;27.17;20.65;;;15.10;90.20;;;;;;5028765;28;20029;-43
2022/05/17 04:34:38;;;;;;;27.30;19.05;;;15.10;90.30;;;;;;5028068;28;20032;-43
2022/05/17 04:37:04;;;;;;;27.38;20.80;;;15.10;90.40;;;;;;5028638;28;20029;-43
2022/05/17 04:39:31;;;;;;;28.88;19.58;;;15.20;90.40;;;;;;5029030;28;20560;-43
2022/05/17 04:41:59;;;;;;;27.65;20.63;;;15.30;90.40;;;;;;5028506;28;20030;-43
2022/05/17 04:44:26;;;;;;;24.10;19.88;;;15.30;90.20;;;;;;5028563;28;20049;-42
2022/05/17 04:46:53;;;;;;;30.67;21.88;;;15.30;90.10;;;;;;5027226;28;20030;-44
2022/05/17 04:49:21;;;;;;;24.20;19.08;;;15.40;90.20;;;;;;5028671;28;20030;-42
2022/05/17 04:51:53;;;;;;;25.90;19.85;;;15.40;90.10;;;;;;5015906;28;20355;-43
2022/05/17 04:54:20;;;;;;;28.75;20.35;;;15.40;90.10;;;;;;5018204;28;20089;-42
2022/05/17 04:56:46;;;;;;;36.95;23.98;;;15.40;90.00;;;;;;5026815;28;20060;-45
2022/05/17 04:59:13;;;;;;;26.65;20.75;;;15.50;89.90;;;;;;5026488;28;20038;-42
2022/05/17 05:01:38;;;;;;;29.02;20.67;;;15.50;89.70;;;;;;4999502;28;20034;-47
2022/05/17 05:04:05;;;;;;;23.73;20.08;;;15.50;89.50;;;;;;5008925;28;20045;-46
2022/05/17 05:06:35;;;;;;;25.15;19.90;;;15.50;89.50;;;;;;4990471;28;20022;-43
2022/05/17 05:09:02;;;;;;;32.35;20.20;;;15.40;89.50;;;;;;5008921;28;20038;-42
2022/05/17 05:11:29;;;;;;;25.65;19.80;;;15.40;89.40;;;;;;5008306;28;20132;-44
2022/05/17 05:13:56;;;;;;;25.20;18.55;;;15.40;89.50;;;;;;5009632;28;20100;-42
2022/05/17 05:16:24;;;;;;;32.20;21.02;;;15.40;89.60;;;;;;5008111;28;20045;-42
2022/05/17 05:18:51;;;;;;;26.17;18.63;;;15.50;89.60;;;;;;5006903;28;20116;-42
2022/05/17 05:21:19;;;;;;;29.58;18.88;;;15.60;89.70;;;;;;5012313;28;20038;-42
2022/05/17 05:23:46;;;;;;;22.92;19.15;;;15.80;89.60;;;;;;5008099;28;20039;-42
2022/05/17 05:26:14;;;;;;;31.33;19.55;;;15.90;89.20;;;;;;4990534;28;20049;-41
2022/05/17 05:28:42;;;;;;;22.02;16.55;;;15.90;89.20;;;;;;5012952;28;20045;-42
2022/05/17 05:31:12;;;;;;;22.90;17.98;;;16.10;89.10;;;;;;5018010;28;20424;-42
2022/05/17 05:33:41;;;;;;;24.20;17.02;;;16.30;89.10;;;;;;5027856;28;20040;-42
2022/05/17 05:36:09;;;;;;;20.77;16.17;;;16.40;89.00;;;;;;4992498;28;20065;-42
2022/05/17 05:38:36;;;;;;;21.42;15.63;;;16.70;88.80;;;;;;5012166;28;20117;-42
2022/05/17 05:41:03;;;;;;;24.85;15.23;;;17.00;88.40;;;;;;5014055;28;20033;-41
2022/05/17 05:43:30;;;;;;;24.50;13.40;;;17.10;86.90;;;;;;5025756;28;20040;-41
2022/05/17 05:45:57;;;;;;;16.77;12.30;;;17.20;86.40;;;;;;5009825;28;20030;-41
2022/05/17 05:48:23;;;;;;;18.90;12.13;;;17.20;86.40;;;;;;5012335;28;20053;-41
2022/05/17 05:50:52;;;;;;;19.05;11.77;;;17.20;85.90;;;;;;5003636;28;20540;-41
2022/05/17 05:53:20;;;;;;;19.38;10.95;;;17.10;85.80;;;;;;5017256;28;20624;-41
2022/05/17 05:56:01;;;;;;;18.17;11.20;;;17.30;86.40;;;;;;4993263;28;20074;-42
2022/05/17 05:58:40;;;;;;;20.58;12.75;;;17.40;86.00;;;;;;5010175;28;20511;-43
2022/05/17 06:01:07;;;;;;;23.20;11.43;;;17.40;85.20;;;;;;5010648;28;20379;-44
2022/05/17 06:03:35;;;;;;;20.58;10.85;;;17.40;85.00;;;;;;4994450;28;20105;-43
2022/05/17 06:06:04;;;;;;;21.67;11.52;;;17.30;84.80;;;;;;4992773;28;20075;-45
2022/05/17 06:08:34;;;;;;;19.10;11.43;;;17.10;84.80;;;;;;4985982;28;20034;-43
2022/05/17 06:11:01;;;;;;;22.77;12.23;;;17.10;85.50;;;;;;5007702;28;20037;-43
2022/05/17 06:13:28;;;;;;;23.40;11.55;;;17.10;85.50;;;;;;5008751;28;20164;-41
2022/05/17 06:15:58;;;;;;;20.48;12.77;;;17.10;85.50;;;;;;5004248;28;20724;-46
2022/05/17 06:18:25;;;;;;;21.55;11.82;;;17.10;85.30;;;;;;5005819;28;20053;-41
2022/05/17 06:20:54;;;;;;;21.25;13.68;;;17.10;85.30;;;;;;5008313;28;20049;-41
2022/05/17 06:23:21;;;;;;;20.55;12.05;;;17.10;85.40;;;;;;5009088;28;20091;-41
2022/05/17 06:25:49;;;;;;;22.67;13.98;;;17.00;85.30;;;;;;5008356;28;20083;-41
2022/05/17 06:28:16;;;;;;;20.58;12.27;;;17.30;86.20;;;;;;5006695;28;20025;-44
2022/05/17 06:30:45;;;;;;;19.83;11.05;;;17.40;85.10;;;;;;5008430;28;20471;-42
2022/05/17 06:33:16;;;;;;;21.27;11.90;;;17.50;85.10;;;;;;5006798;28;20081;-42
2022/05/17 06:35:45;;;;;;;24.83;11.65;;;17.60;84.80;;;;;;5006488;28;20375;-42
2022/05/17 06:38:11;;;;;;;17.73;10.63;;;17.60;84.90;;;;;;5008087;28;20026;-45
2022/05/17 06:40:38;;;;;;;25.58;12.23;;;17.80;85.00;;;;;;4980023;28;20034;-43
2022/05/17 06:43:05;;;;;;;28.00;12.23;;;17.70;84.50;;;;;;5008042;28;20030;-47
2022/05/17 06:45:33;;;;;;;21.00;12.57;;;17.60;84.70;;;;;;5007993;28;20057;-42
2022/05/17 06:48:01;;;;;;;22.65;12.43;;;17.60;84.60;;;;;;4990308;28;20034;-44
2022/05/17 06:50:30;;;;;;;18.85;11.57;;;17.60;84.30;;;;;;5003378;28;20034;-44
2022/05/17 06:53:03;;;;;;;21.77;12.00;;;17.70;84.50;;;;;;5004398;28;20434;-43
2022/05/17 06:55:31;;;;;;;19.73;12.07;;;17.80;84.50;;;;;;4989888;28;20038;-43
2022/05/17 06:57:57;;;;;;;22.05;12.38;;;17.70;84.00;;;;;;5024061;28;20137;-43
2022/05/17 07:00:26;;;;;;;22.88;11.95;;;17.80;84.10;;;;;;5029335;28;20459;-44
2022/05/17 07:02:53;;;;;;;20.30;11.07;;;17.90;84.50;;;;;;5032133;28;20445;-47
2022/05/17 07:05:19;;;;;;;27.88;13.10;;;18.20;84.60;;;;;;5014910;28;20025;-45
2022/05/17 07:07:46;;;;;;;21.60;12.35;;;18.30;83.80;;;;;;5024583;28;20040;-45
2022/05/17 07:13:07;;;;;;;19.23;11.20;;;18.40;82.30;;;;;;5042101;28;20468;-47
2022/05/17 07:15:33;;;;;;;23.27;12.10;;;18.30;82.10;;;;;;5037915;28;20446;-45
2022/05/17 07:18:00;;;;;;;22.98;12.13;;;18.40;83.00;;;;;;5026591;28;20369;-44
2022/05/17 07:20:28;;;;;;;19.13;11.95;;;18.40;81.60;;;;;;5037898;28;20506;-45
2022/05/17 07:22:55;;;;;;;20.17;12.52;;;18.40;81.20;;;;;;5030705;28;20486;-44
2022/05/17 07:25:25;;;;;;;17.38;12.65;;;18.60;81.40;;;;;;5021680;28;20029;-50
2022/05/17 07:27:51;;;;;;;25.10;12.48;;;18.60;80.60;;;;;;5031586;28;20036;-49
2022/05/17 07:30:19;;;;;;;21.38;10.95;;;18.70;80.00;;;;;;5020498;28;20482;-44
2022/05/17 07:32:46;;;;;;;21.65;11.75;;;18.90;80.90;;;;;;5035411;28;20037;-47
2022/05/17 07:35:15;;;;;;;18.20;11.25;;;19.20;80.10;;;;;;5026720;28;20060;-44
2022/05/17 07:37:41;;;;;;;19.55;11.05;;;19.70;79.20;;;;;;5029447;28;20051;-44
2022/05/17 07:40:09;;;;;;;21.15;10.27;;;20.30;76.60;;;;;;5032461;28;20029;-47
2022/05/17 07:42:36;;;;;;;19.25;9.32;;;20.60;75.50;;;;;;5036725;28;20032;-47
2022/05/17 07:45:04;;;;;;;16.83;10.48;;;20.90;73.90;;;;;;5016999;28;20134;-47
2022/05/17 07:47:30;;;;;;;18.65;10.55;;;21.20;73.90;;;;;;5033728;28;20025;-45
2022/05/17 07:49:57;;;;;;;20.83;9.55;;;20.70;74.30;;;;;;5028663;28;20036;-45
2022/05/17 07:52:24;;;;;;;14.80;9.02;;;20.50;74.30;;;;;;5028870;28;20022;-45
2022/05/17 07:54:51;;;;;;;24.35;10.10;;;20.40;75.10;;;;;;5028678;28;20164;-47
2022/05/17 07:57:19;;;;;;;23.25;10.60;;;20.20;75.90;;;;;;5028102;28;20053;-47
2022/05/17 07:59:46;;;;;;;16.65;10.65;;;20.10;75.80;;;;;;5020479;28;20022;-47
2022/05/17 08:02:13;;;;;;;18.40;10.18;;;20.00;76.40;;;;;;5008861;28;20459;-45
2022/05/17 08:04:39;;;;;;;21.13;10.00;;;19.90;77.40;;;;;;5008416;28;20026;-47
2022/05/17 08:07:08;;;;;;;17.83;10.18;;;19.90;77.00;;;;;;5007953;28;20123;-45
2022/05/17 08:09:36;;;;;;;19.40;10.27;;;19.90;76.10;;;;;;5012754;28;20040;-46
2022/05/17 08:12:07;;;;;;;21.42;10.98;;;19.80;76.00;;;;;;5014651;28;20025;-47
2022/05/17 08:14:39;;;;;;;19.60;11.38;;;19.90;77.10;;;;;;5022092;28;20033;-45
2022/05/17 08:17:10;;;;;;;18.63;9.65;;;20.50;76.00;;;;;;5003387;28;20042;-47
2022/05/17 08:19:38;;;;;;;16.77;9.15;;;20.90;75.50;;;;;;5020318;28;20475;-48
2022/05/17 08:22:07;;;;;;;15.90;9.85;;;20.90;74.90;;;;;;5009077;28;20053;-46
2022/05/17 08:27:37;;;;;;;20.33;10.18;;;20.80;74.10;;;;;;5008168;28;20048;-49
2022/05/17 08:30:15;;;;;;;19.08;8.30;;;20.10;75.30;;;;;;5008619;28;20026;-46
2022/05/17 08:33:16;;;;;;;21.25;12.65;;;20.20;77.00;;;;;;5008548;28;20018;-46
2022/05/17 08:35:41;;;;;;;18.63;9.57;;;20.60;76.20;;;;;;5004090;28;20037;-47
2022/05/17 08:38:11;;;;;;;20.60;10.80;;;20.90;76.20;;;;;;5008365;28;20014;-49
2022/05/17 08:40:50;;;;;;;;;;;20.70;75.00;;;;;;5008930;28;20474;-46
2022/05/17 08:43:46;;;;;;;18.35;9.77;;;20.90;75.50;;;;;;5008130;28;19925;-45
2022/05/17 08:46:39;;;;;;;18.85;10.63;;;20.60;75.80;;;;;;5006627;28;20355;-46
2022/05/17 08:49:31;;;;;;;14.25;9.75;;;20.20;76.90;;;;;;5008284;28;20109;-47
2022/05/17 08:52:17;;;;;;;13.55;7.20;;;19.90;76.50;;;;;;5008563;28;20455;-47
2022/05/17 08:55:15;;;;;;;16.55;10.60;;;19.80;78.20;;;;;;5004811;28;20057;-48
2022/05/17 08:58:02;;;;;;;18.65;10.27;;;19.70;78.70;;;;;;5008979;28;20368;-47
2022/05/17 09:01:13;;;;;;;18.55;13.65;;;19.90;79.00;;;;;;5001774;28;20026;-47
2022/05/17 09:04:03;;;;;;;18.50;10.98;;;20.20;78.30;;;;;;5006591;28;20129;-48
2022/05/17 09:06:58;;;;;;;16.67;10.65;;;20.90;77.20;;;;;;5007430;28;20133;-45
2022/05/17 09:09:43;;;;;;;20.08;12.02;;;21.20;75.10;;;;;;4999859;28;20040;-46
2022/05/17 09:12:44;;;;;;;21.35;11.95;;;21.00;75.30;;;;;;5007216;28;20101;-46
2022/05/17 09:15:15;;;;;;;15.35;10.10;;;20.70;75.20;;;;;;4999032;28;20042;-46
2022/05/17 09:17:43;;;;;;;21.70;12.98;;;20.60;75.90;;;;;;5023164;28;20064;-47
2022/05/17 09:20:16;;;;;;;16.05;10.95;;;20.30;76.60;;;;;;5016062;28;20072;-48
2022/05/17 09:22:43;;;;;;;15.35;9.15;;;20.20;77.20;;;;;;5007501;28;20034;-49
2022/05/17 09:25:26;;;;;;;17.45;12.55;;;20.10;77.40;;;;;;5005867;28;20029;-47
2022/05/17 09:27:53;;;;;;;17.50;11.95;;;20.10;77.80;;;;;;5005567;28;20033;-50
2022/05/17 09:30:44;;;;;;;21.13;12.93;;;20.40;78.10;;;;;;5006075;28;20068;-50
2022/05/17 09:33:21;;;;;;;17.38;12.80;;;20.70;77.10;;;;;;5020723;28;20451;-51
2022/05/17 09:35:57;;;;;;;17.17;10.80;;;21.00;74.70;;;;;;5006011;28;20033;-52
2022/05/17 09:38:28;;;;;;;20.40;12.85;;;21.30;74.60;;;;;;4993405;28;20121;-48
2022/05/17 09:41:04;;;;;;;21.00;12.48;;;21.30;73.50;;;;;;5006421;28;20100;-52
2022/05/17 09:43:45;;;;;;;19.27;11.15;;;21.00;74.70;;;;;;5005109;28;20451;-50
2022/05/17 09:46:35;;;;;;;14.75;11.95;;;20.70;76.20;;;;;;5020740;28;20475;-49
2022/05/17 09:52:32;;;;;;;17.52;11.82;;;21.50;76.60;;;;;;4994843;28;20073;-53
2022/05/17 09:55:30;;;;;;;16.67;12.30;;;22.40;72.60;;;;;;5005531;28;20030;-47
2022/05/17 09:58:02;;;;;;;20.40;12.68;;;23.00;69.20;;;;;;5020688;28;20051;-48
2022/05/17 10:00:43;;;;;;;19.25;11.30;;;22.60;69.20;;;;;;5025447;28;20113;-49
2022/05/17 10:03:40;;;;;;;20.67;11.98;;;22.00;69.90;;;;;;5025166;28;20043;-47
2022/05/17 10:06:45;;;;;;;20.15;13.43;;;21.30;72.20;;;;;;5011974;28;20068;-50
2022/05/17 10:09:35;;;;;;;21.67;14.40;;;20.80;74.50;;;;;;5023478;28;20099;-49
2022/05/17 10:12:07;;;;;;;20.50;12.38;;;20.90;75.50;;;;;;5025380;28;20490;-47
2022/05/17 10:14:46;;;;;;;20.83;12.82;;;20.80;74.70;;;;;;5005498;28;20654;-51
2022/05/17 10:17:47;;;;;;;19.80;12.30;;;20.60;75.70;;;;;;5010540;28;20030;-47
2022/05/17 10:20:23;;;;;;;18.52;10.88;;;20.30;75.40;;;;;;5024284;28;20096;-50
2022/05/17 10:23:00;;;;;;;24.17;13.77;;;19.90;77.00;;;;;;5026544;28;20488;-47
2022/05/17 10:25:41;;;;;;;22.92;12.80;;;19.40;76.70;;;;;;5013863;28;20041;-51
2022/05/17 10:28:28;;;;;;;29.00;12.77;;;19.00;78.50;;;;;;5026067;28;20477;-50
2022/05/17 10:30:59;;;;;;;22.02;12.98;;;18.90;79.70;;;;;;5027051;28;20082;-47
2022/05/17 10:33:28;;;;;;;30.25;14.00;;;18.70;79.70;;;;;;5028022;28;20486;-46
2022/05/17 10:36:07;;;;;;;24.20;14.30;;;18.50;79.80;;;;;;5026147;28;20029;-47
2022/05/17 10:38:39;;;;;;;23.52;13.43;;;18.50;80.70;;;;;;5026626;28;20075;-46
2022/05/17 10:41:11;;;;;;;23.63;13.25;;;18.90;81.20;;;;;;5026962;28;20030;-46
2022/05/17 10:43:41;;;;;;;24.80;13.68;;;19.40;79.40;;;;;;5027408;28;20029;-46
2022/05/17 10:46:30;;;;;;;23.05;12.38;;;19.70;77.70;;;;;;5026787;28;20087;-49
2022/05/17 10:48:59;;;;;;;24.70;11.27;;;19.70;76.60;;;;;;5029063;28;20042;-47
2022/05/17 10:51:38;;;;;;;20.17;12.43;;;19.40;77.30;;;;;;5029640;28;20030;-48
2022/05/17 10:54:32;;;;;;;21.75;10.75;;;19.50;78.00;;;;;;5029462;28;20067;-48
2022/05/17 10:57:45;;;;;;;24.95;11.20;;;19.60;77.50;;;;;;5012699;28;20045;-49
2022/05/17 11:00:26;;;;;;;25.80;12.30;;;19.60;76.60;;;;;;5028697;28;20092;-48
2022/05/17 11:03:21;;;;;;;18.65;11.90;;;19.50;76.70;;;;;;5010577;28;20033;-50
2022/05/17 11:05:56;;;;;;;23.08;10.30;;;19.90;77.50;;;;;;5015390;28;20088;-50
2022/05/17 11:08:39;;;;;;;20.70;11.90;;;20.20;76.80;;;;;;5042557;28;20029;-48
2022/05/17 11:11:32;;;;;;;26.25;12.40;;;20.80;75.90;;;;;;5044835;28;20025;-52
2022/05/17 11:14:31;;;;;;;25.55;12.40;;;21.40;74.60;;;;;;5028507;28;20108;-49
2022/05/17 11:17:35;;;;;;;23.43;11.97;;;21.90;74.20;;;;;;5032405;28;20497;-47
2022/05/17 11:20:31;;;;;;;20.48;10.63;;;22.30;72.40;;;;;;5029865;28;20033;-48
2022/05/17 11:23:27;;;;;;;20.52;11.63;;;22.40;70.90;;;;;;5027640;28;20478;-48
2022/05/17 11:26:24;;;;;;;23.70;10.80;;;22.50;68.80;;;;;;5025811;28;20022;-50
2022/05/17 11:29:15;;;;;;;24.27;13.45;;;22.30;69.90;;;;;;5028313;28;20041;-51
2022/05/17 11:31:56;;;;;;;21.67;13.13;;;22.00;70.70;;;;;;5029499;28;20064;-50
2022/05/17 11:34:36;;;;;;;20.65;12.23;;;22.20;71.60;;;;;;5027118;28;20040;-48
2022/05/17 11:37:09;;;;;;;19.85;13.90;;;22.20;71.00;;;;;;5029018;28;20517;-48
2022/05/17 11:39:46;;;;;;;26.50;15.98;;;22.10;70.80;;;;;;5027556;28;20048;-46
2022/05/17 11:43:40;;;;;;;23.52;15.80;;;22.20;70.60;;;;;;5020021;28;20072;-48
2022/05/17 11:45:44;;;;;;;19.17;14.40;;;21.90;70.80;;;;;;5024008;28;20577;-47
2022/05/17 11:48:17;;;;;;;24.25;15.32;;;21.90;71.30;;;;;;5013844;28;20346;-49
2022/05/17 11:51:03;;;;;;;22.63;15.18;;;22.00;71.00;;;;;;5007661;28;20816;-50
2022/05/17 11:53:49;;;;;;;23.65;13.80;;;22.00;70.60;;;;;;5040380;28;20191;-48
2022/05/17 11:56:28;;;;;;;29.05;15.93;;;21.90;71.90;;;;;;5028669;28;20105;-46
2022/05/17 11:59:18;;;;;;;21.88;14.85;;;22.00;72.30;;;;;;5024240;28;20044;-47
2022/05/17 12:01:45;;;;;;;;;;;21.90;71.00;;;;;;5029741;28;20048;-49
2022/05/17 12:04:24;;;;;;;27.25;16.02;;;21.90;71.90;;;;;;5028225;28;20040;-48
2022/05/17 12:07:07;;;;;;;22.85;16.95;;;21.90;70.60;;;;;;5028464;28;20025;-47
2022/05/17 12:09:39;;;;;;;26.95;16.63;;;22.00;71.50;;;;;;5028666;28;20102;-49
2022/05/17 12:12:30;;;;;;;23.50;18.48;;;21.80;72.10;;;;;;5029109;28;20438;-48
2022/05/17 12:15:33;;;;;;;26.88;16.85;;;21.70;72.50;;;;;;5011189;28;20042;-48
2022/05/17 12:18:13;;;;;;;22.85;15.77;;;21.80;70.90;;;;;;5023213;28;20183;-46
2022/05/17 12:21:16;;;;;;;31.80;20.90;;;21.90;72.50;;;;;;5028623;28;20633;-49
2022/05/17 12:24:16;;;;;;;28.38;19.73;;;21.80;72.00;;;;;;5028768;28;20037;-48
2022/05/17 12:27:06;;;;;;;28.73;19.98;;;21.70;71.10;;;;;;5032739;28;20060;-46
2022/05/17 12:32:32;;;;;;;29.73;18.77;;;21.70;73.10;;;;;;5043029;28;20152;-49
2022/05/17 12:34:59;;;;;;;21.58;13.73;;;21.80;73.50;;;;;;5027962;28;20040;-46
2022/05/17 12:37:28;;;;;;;28.02;16.30;;;22.00;73.80;;;;;;5034766;23;20024;-49
2022/05/17 12:43:07;;;;;;;22.48;15.93;;;21.80;70.60;;;;;;5047239;28;20044;-50
2022/05/17 12:45:43;;;;;;;21.50;15.10;;;21.70;72.80;;;;;;5014004;28;20767;-47
2022/05/17 12:48:28;;;;;;;28.35;19.30;;;21.60;73.90;;;;;;5028376;28;20025;-51
2022/05/17 12:51:01;;;;;;;26.80;18.52;;;21.50;73.70;;;;;;5028197;28;20029;-51
2022/05/17 12:53:42;;;;;;;25.27;17.88;;;21.70;73.70;;;;;;5027885;28;20036;-49
2022/05/17 12:56:36;;;;;;;30.73;19.25;;;21.70;75.10;;;;;;5027533;28;20028;-48
2022/05/17 12:59:06;;;;;;;36.42;18.00;;;21.70;74.40;;;;;;5030419;28;20049;-46
2022/05/17 13:01:40;;;;;;;33.75;19.60;;;21.70;73.20;;;;;;5028023;28;20064;-49
2022/05/17 13:04:13;;;;;;;27.52;18.48;;;21.40;73.50;;;;;;5027806;28;20036;-47
2022/05/17 13:07:14;;;;;;;26.35;15.43;;;21.20;73.60;;;;;;5026585;28;20108;-51
2022/05/17 13:10:06;;;;;;;23.35;13.75;;;21.10;75.30;;;;;;5013261;28;20068;-48
2022/05/17 13:12:38;;;;;;;29.67;13.13;;;20.90;75.20;;;;;;5036632;28;20104;-48
2022/05/17 13:15:09;;;;;;;30.33;13.70;;;21.00;74.20;;;;;;5039645;28;20106;-50
2022/05/17 13:17:39;;;;;;;21.60;12.50;;;21.10;75.70;;;;;;5035585;28;20025;-50